<?xml version="1.0" encoding="UTF-8" standalone="no" ?>
<gpx xmlns="http://www.topografix.com/GPX/1/1" xmlns:xsi="http://www.w3.org/2001/XMLSchema-instance" xsi:schemaLocation="http://www.topografix.com/GPX/1/1 http://www.topografix.com/GPX/1/1/gpx.xsd" version="1.1" creator="VisuGPX - https://www.visugpx.com">
  <metadata>
    <name>VacancesDricouZoe</name>
  </metadata>
  <trk>
    <name><![CDATA[Journal actif: 2021-07-01 13:04]]></name>
    <trkseg>
      <trkpt lat="44.62989" lon="-1.25261">
        <ele>1.58</ele>
        <time>2021-07-01T15:04:15Z</time>
      </trkpt>
      <trkpt lat="44.62992" lon="-1.25269">
        <ele>-0.82</ele>
        <time>2021-07-01T15:04:16Z</time>
      </trkpt>
      <trkpt lat="44.62992" lon="-1.25269">
        <ele>-2.75</ele>
        <time>2021-07-01T15:04:17Z</time>
      </trkpt>
      <trkpt lat="44.62999" lon="-1.25287">
        <ele>-2.27</ele>
        <time>2021-07-01T15:04:19Z</time>
      </trkpt>
      <trkpt lat="44.62999" lon="-1.25287">
        <ele>-2.75</ele>
        <time>2021-07-01T15:04:21Z</time>
      </trkpt>
      <trkpt lat="44.63004" lon="-1.25292">
        <ele>-3.23</ele>
        <time>2021-07-01T15:04:22Z</time>
      </trkpt>
      <trkpt lat="44.63008" lon="-1.25296">
        <ele>-2.75</ele>
        <time>2021-07-01T15:04:23Z</time>
      </trkpt>
      <trkpt lat="44.63018" lon="-1.25304">
        <ele>-2.75</ele>
        <time>2021-07-01T15:04:24Z</time>
      </trkpt>
      <trkpt lat="44.63023" lon="-1.25309">
        <ele>-2.27</ele>
        <time>2021-07-01T15:04:25Z</time>
      </trkpt>
      <trkpt lat="44.63028" lon="-1.25314">
        <ele>-3.71</ele>
        <time>2021-07-01T15:04:27Z</time>
      </trkpt>
      <trkpt lat="44.63034" lon="-1.25319">
        <ele>-3.71</ele>
        <time>2021-07-01T15:04:28Z</time>
      </trkpt>
      <trkpt lat="44.63042" lon="-1.25322">
        <ele>-3.71</ele>
        <time>2021-07-01T15:04:29Z</time>
      </trkpt>
      <trkpt lat="44.63122" lon="-1.25359">
        <ele>-5.15</ele>
        <time>2021-07-01T15:04:42Z</time>
      </trkpt>
      <trkpt lat="44.63153" lon="-1.25348">
        <ele>-3.71</ele>
        <time>2021-07-01T15:04:51Z</time>
      </trkpt>
      <trkpt lat="44.63157" lon="-1.25349">
        <ele>-3.71</ele>
        <time>2021-07-01T15:04:52Z</time>
      </trkpt>
      <trkpt lat="44.63161" lon="-1.25351">
        <ele>-3.71</ele>
        <time>2021-07-01T15:04:53Z</time>
      </trkpt>
      <trkpt lat="44.63173" lon="-1.25368">
        <ele>-3.23</ele>
        <time>2021-07-01T15:04:55Z</time>
      </trkpt>
      <trkpt lat="44.63173" lon="-1.25368">
        <ele>-2.75</ele>
        <time>2021-07-01T15:04:56Z</time>
      </trkpt>
      <trkpt lat="44.63178" lon="-1.25368">
        <ele>-3.23</ele>
        <time>2021-07-01T15:04:57Z</time>
      </trkpt>
      <trkpt lat="44.63182" lon="-1.25367">
        <ele>-3.23</ele>
        <time>2021-07-01T15:04:58Z</time>
      </trkpt>
      <trkpt lat="44.63188" lon="-1.25366">
        <ele>-3.23</ele>
        <time>2021-07-01T15:04:59Z</time>
      </trkpt>
      <trkpt lat="44.633" lon="-1.25373">
        <ele>-2.75</ele>
        <time>2021-07-01T15:05:14Z</time>
      </trkpt>
      <trkpt lat="44.63398" lon="-1.25384">
        <ele>-0.82</ele>
        <time>2021-07-01T15:05:26Z</time>
      </trkpt>
      <trkpt lat="44.63489" lon="-1.25396">
        <ele>2.54</ele>
        <time>2021-07-01T15:05:38Z</time>
      </trkpt>
      <trkpt lat="44.63509" lon="-1.25405">
        <ele>2.06</ele>
        <time>2021-07-01T15:05:41Z</time>
      </trkpt>
      <trkpt lat="44.63593" lon="-1.2545">
        <ele>1.1</ele>
        <time>2021-07-01T15:05:53Z</time>
      </trkpt>
      <trkpt lat="44.63688" lon="-1.25455">
        <ele>2.06</ele>
        <time>2021-07-01T15:06:05Z</time>
      </trkpt>
      <trkpt lat="44.63695" lon="-1.25452">
        <ele>2.06</ele>
        <time>2021-07-01T15:06:06Z</time>
      </trkpt>
      <trkpt lat="44.63735" lon="-1.25435">
        <ele>1.1</ele>
        <time>2021-07-01T15:06:15Z</time>
      </trkpt>
      <trkpt lat="44.63739" lon="-1.25435">
        <ele>1.58</ele>
        <time>2021-07-01T15:06:17Z</time>
      </trkpt>
      <trkpt lat="44.63735" lon="-1.25439">
        <ele>1.58</ele>
        <time>2021-07-01T15:06:18Z</time>
      </trkpt>
      <trkpt lat="44.63735" lon="-1.25442">
        <ele>1.58</ele>
        <time>2021-07-01T15:06:19Z</time>
      </trkpt>
      <trkpt lat="44.63739" lon="-1.25498">
        <ele>2.54</ele>
        <time>2021-07-01T15:06:33Z</time>
      </trkpt>
      <trkpt lat="44.63741" lon="-1.25504">
        <ele>2.06</ele>
        <time>2021-07-01T15:06:44Z</time>
      </trkpt>
      <trkpt lat="44.63737" lon="-1.25482">
        <ele>0.62</ele>
        <time>2021-07-01T15:07:00Z</time>
      </trkpt>
      <trkpt lat="44.63737" lon="-1.25482">
        <ele>0.62</ele>
        <time>2021-07-01T15:07:02Z</time>
      </trkpt>
      <trkpt lat="44.63736" lon="-1.25475">
        <ele>0.62</ele>
        <time>2021-07-01T15:07:03Z</time>
      </trkpt>
      <trkpt lat="44.63736" lon="-1.25475">
        <ele>0.62</ele>
        <time>2021-07-01T15:07:04Z</time>
      </trkpt>
      <trkpt lat="44.63736" lon="-1.25478">
        <ele>0.62</ele>
        <time>2021-07-01T15:07:05Z</time>
      </trkpt>
      <trkpt lat="44.63736" lon="-1.2548">
        <ele>0.62</ele>
        <time>2021-07-01T15:07:06Z</time>
      </trkpt>
      <trkpt lat="44.63737" lon="-1.25482">
        <ele>0.62</ele>
        <time>2021-07-01T15:07:07Z</time>
      </trkpt>
      <trkpt lat="44.63737" lon="-1.25482">
        <ele>0.62</ele>
        <time>2021-07-01T15:07:25Z</time>
      </trkpt>
      <trkpt lat="44.63731" lon="-1.25481">
        <ele>-10.44</ele>
        <time>2021-07-01T15:41:14Z</time>
      </trkpt>
      <trkpt lat="44.63735" lon="-1.2548">
        <ele>-7.55</ele>
        <time>2021-07-01T15:41:46Z</time>
      </trkpt>
      <trkpt lat="44.63735" lon="-1.25457">
        <ele>-9</ele>
        <time>2021-07-01T15:42:08Z</time>
      </trkpt>
      <trkpt lat="44.63734" lon="-1.2545">
        <ele>-9.48</ele>
        <time>2021-07-01T15:42:26Z</time>
      </trkpt>
      <trkpt lat="44.63735" lon="-1.2545">
        <ele>-9.48</ele>
        <time>2021-07-01T15:42:29Z</time>
      </trkpt>
      <trkpt lat="44.63738" lon="-1.25449">
        <ele>-9.96</ele>
        <time>2021-07-01T15:42:43Z</time>
      </trkpt>
      <trkpt lat="44.63739" lon="-1.25448">
        <ele>-9.96</ele>
        <time>2021-07-01T15:42:45Z</time>
      </trkpt>
      <trkpt lat="44.6374" lon="-1.25442">
        <ele>-10.44</ele>
        <time>2021-07-01T15:43:04Z</time>
      </trkpt>
      <trkpt lat="44.6374" lon="-1.25442">
        <ele>-10.44</ele>
        <time>2021-07-01T15:43:08Z</time>
      </trkpt>
      <trkpt lat="44.63741" lon="-1.25436">
        <ele>-9.96</ele>
        <time>2021-07-01T15:43:11Z</time>
      </trkpt>
      <trkpt lat="44.63743" lon="-1.25436">
        <ele>-9.96</ele>
        <time>2021-07-01T15:43:12Z</time>
      </trkpt>
      <trkpt lat="44.63746" lon="-1.25436">
        <ele>-9.96</ele>
        <time>2021-07-01T15:43:13Z</time>
      </trkpt>
      <trkpt lat="44.6375" lon="-1.25436">
        <ele>-9.96</ele>
        <time>2021-07-01T15:43:14Z</time>
      </trkpt>
      <trkpt lat="44.63818" lon="-1.25439">
        <ele>-6.59</ele>
        <time>2021-07-01T15:43:25Z</time>
      </trkpt>
      <trkpt lat="44.63884" lon="-1.25427">
        <ele>-5.15</ele>
        <time>2021-07-01T15:43:33Z</time>
      </trkpt>
      <trkpt lat="44.63893" lon="-1.25427">
        <ele>-4.67</ele>
        <time>2021-07-01T15:43:34Z</time>
      </trkpt>
      <trkpt lat="44.64" lon="-1.25433">
        <ele>-3.71</ele>
        <time>2021-07-01T15:43:46Z</time>
      </trkpt>
      <trkpt lat="44.64008" lon="-1.25436">
        <ele>-3.71</ele>
        <time>2021-07-01T15:43:47Z</time>
      </trkpt>
      <trkpt lat="44.64016" lon="-1.2544">
        <ele>-3.71</ele>
        <time>2021-07-01T15:43:48Z</time>
      </trkpt>
      <trkpt lat="44.64057" lon="-1.25458">
        <ele>-3.71</ele>
        <time>2021-07-01T15:43:53Z</time>
      </trkpt>
      <trkpt lat="44.64065" lon="-1.2546">
        <ele>-3.71</ele>
        <time>2021-07-01T15:43:54Z</time>
      </trkpt>
      <trkpt lat="44.64073" lon="-1.25462">
        <ele>-3.71</ele>
        <time>2021-07-01T15:43:55Z</time>
      </trkpt>
      <trkpt lat="44.64081" lon="-1.25464">
        <ele>-3.71</ele>
        <time>2021-07-01T15:43:56Z</time>
      </trkpt>
      <trkpt lat="44.6409" lon="-1.25465">
        <ele>-3.23</ele>
        <time>2021-07-01T15:43:57Z</time>
      </trkpt>
      <trkpt lat="44.64099" lon="-1.25466">
        <ele>-3.23</ele>
        <time>2021-07-01T15:43:58Z</time>
      </trkpt>
      <trkpt lat="44.64159" lon="-1.25478">
        <ele>-1.79</ele>
        <time>2021-07-01T15:44:05Z</time>
      </trkpt>
      <trkpt lat="44.64167" lon="-1.2548">
        <ele>-1.3</ele>
        <time>2021-07-01T15:44:06Z</time>
      </trkpt>
      <trkpt lat="44.64176" lon="-1.25482">
        <ele>-1.79</ele>
        <time>2021-07-01T15:44:07Z</time>
      </trkpt>
      <trkpt lat="44.64194" lon="-1.25482">
        <ele>-1.3</ele>
        <time>2021-07-01T15:44:08Z</time>
      </trkpt>
      <trkpt lat="44.64194" lon="-1.25482">
        <ele>-1.3</ele>
        <time>2021-07-01T15:44:09Z</time>
      </trkpt>
      <trkpt lat="44.64293" lon="-1.25467">
        <ele>1.1</ele>
        <time>2021-07-01T15:44:21Z</time>
      </trkpt>
    </trkseg>
  </trk>
</gpx>